Shannon, Ireland

9:54 PM IST on March 28, 2017 (GMT +0100)
Shannon | | Change Station

Elev 66 ft 52.70 °N, 8.92 °W | Updated 24 minutes ago

Mostly Cloudy
Mostly Cloudy
52 °F
Feels Like 52 °F
N
16
Wind Variable Wind from SE

Today
High -- | Low -- °F
--% Chance of Precip.
Yesterday
High -- | Low -- °F
Precip. -- in
Pressure 29.83 in
Visibility 6.2 miles
Clouds Few 900 ft
Mostly Cloudy 1100 ft
Mostly Cloudy 1400 ft
Dew Point 48 °F
Humidity 88%
Rainfall 0.00 in
Snow Depth Not available.
7:19 AM 8:03 PM
New Moon, 1% visible
METAR EINN 282030Z 14014KT 9999 FEW009 BKN011 BKN014 11/09 Q1010 BECMG BKN009
Pressure 29.83 in
Visibility 6.2 miles
Clouds Few 900 ft
Mostly Cloudy 1100 ft
Mostly Cloudy 1400 ft
Dew Point 48 °F
Humidity 88%
Rainfall 0.00 in
Snow Depth Not available.
7:19 AM 8:03 PM
New Moon, 1% visible
METAR EINN 282030Z 14014KT 9999 FEW009 BKN011 BKN014 11/09 Q1010 BECMG BKN009

Get Severe Weather Alerts

Thanks for signing up!

Be on the lookout for a verification email in your inbox.

You'll start receiving the daily forecast at 8 AM.

×

10-Day Weather Forecast

×

Almanac

Astronomy

Mar. 28, 2017 Rise Set
Actual Time
Civil Twilight
Nautical Twilight
Astronomical Twilight
Moon
Length of Visible Light
Length of Day
Tomorrow will be .
, % of the Moon is Illuminated

Today's Extremes

Country Highs Country Lows

Community

WunderPhotos

Upload Photos

1,962,540 photos uploaded!

WunderBlog® & News

Nearby

Air Quality

  Air Quality AQ Index Pollutant
Not available.

Snow Depth

Station Depth Elevation

Earthquake Activity

City Distance Mag. Time & Date
Minimum magnitude displayed is 2.5.

Earthquake Activity

City Distance Mag. Time & Date
Minimum magnitude displayed is 2.5.

Coastal Water Temperatures

Place Temperature

Stations

Nearby Weather Stations

Station Location Temp. Windchill Dew Point Humidity Wind Precip. Elev Updated Type